createdAt,value
2023-05-10T00:01:19.690Z,16.38
2023-05-10T00:03:48.732Z,16.33
2023-05-10T00:06:16.112Z,16.34
2023-05-10T00:08:43.441Z,16.35
2023-05-10T00:11:10.759Z,16.36
2023-05-10T00:13:38.009Z,16.28
2023-05-10T00:16:06.159Z,16.20
2023-05-10T00:18:33.572Z,16.19
2023-05-10T00:21:02.250Z,16.29
2023-05-10T00:23:29.711Z,16.25
2023-05-10T00:25:58.714Z,16.20
2023-05-10T00:28:28.051Z,16.20
2023-05-10T00:30:55.493Z,16.19
2023-05-10T00:33:23.648Z,16.13
2023-05-10T00:35:51.084Z,16.05
2023-05-10T00:38:19.862Z,16.07
2023-05-10T00:40:47.366Z,15.98
2023-05-10T00:43:22.714Z,15.96
2023-05-10T00:45:53.544Z,15.98
2023-05-10T00:48:22.043Z,15.92
2023-05-10T00:50:49.731Z,15.87
2023-05-10T00:53:17.965Z,15.88
2023-05-10T00:55:46.777Z,15.87
2023-05-10T00:58:15.110Z,15.83
2023-05-10T01:00:43.592Z,15.76
2023-05-10T01:03:11.530Z,15.77
2023-05-10T01:05:41.078Z,15.71
2023-05-10T01:08:08.747Z,15.71
2023-05-10T01:10:37.202Z,15.74
2023-05-10T01:13:06.064Z,15.73
2023-05-10T01:15:33.600Z,15.67
2023-05-10T01:18:01.453Z,15.70
2023-05-10T01:20:36.709Z,15.62
2023-05-10T01:23:34.997Z,15.67
2023-05-10T01:26:38.093Z,15.71
2023-05-10T01:29:42.557Z,15.69
2023-05-10T01:32:27.969Z,15.69
2023-05-10T01:35:01.382Z,15.71
2023-05-10T01:37:37.079Z,15.65
2023-05-10T01:40:15.251Z,15.68
2023-05-10T01:42:51.159Z,15.69
2023-05-10T01:45:28.036Z,15.72
2023-05-10T01:48:06.268Z,15.64
2023-05-10T01:50:36.406Z,15.68
2023-05-10T01:53:08.900Z,15.65
2023-05-10T01:55:42.718Z,15.63
2023-05-10T01:58:14.029Z,15.63
2023-05-10T02:00:45.420Z,15.59
2023-05-10T02:03:17.228Z,15.59
2023-05-10T02:05:46.902Z,15.57
2023-05-10T02:08:16.242Z,15.56
2023-05-10T02:10:45.913Z,15.53
2023-05-10T02:13:15.014Z,15.48
2023-05-10T02:15:43.684Z,15.42
2023-05-10T02:18:15.456Z,15.41
2023-05-10T02:20:44.454Z,15.32
2023-05-10T02:23:13.055Z,15.33
2023-05-10T02:25:42.302Z,15.27
2023-05-10T02:28:11.359Z,15.28
2023-05-10T02:30:39.813Z,15.30
2023-05-10T02:33:07.897Z,15.25
2023-05-10T02:35:38.607Z,15.21
2023-05-10T02:38:08.224Z,15.15
2023-05-10T02:40:38.776Z,15.15
2023-05-10T02:43:07.228Z,15.10
2023-05-10T02:45:36.390Z,15.07
2023-05-10T02:48:04.472Z,15.10
2023-05-10T02:50:34.206Z,15.10
2023-05-10T02:53:10.625Z,15.10
2023-05-10T02:55:41.346Z,15.05
2023-05-10T02:58:08.743Z,14.97
2023-05-10T03:00:36.109Z,14.78
2023-05-10T03:03:04.199Z,14.61
2023-05-10T03:05:31.547Z,14.49
2023-05-10T03:08:03.743Z,14.32
2023-05-10T03:10:33.490Z,14.31
2023-05-10T03:13:12.001Z,14.35
2023-05-10T03:15:52.503Z,14.41
2023-05-10T03:18:24.266Z,14.37
2023-05-10T03:20:57.921Z,14.48
2023-05-10T03:23:31.304Z,14.50
2023-05-10T03:26:00.416Z,14.50
2023-05-10T03:28:28.509Z,14.55
2023-05-10T03:30:57.132Z,14.47
2023-05-10T03:33:24.625Z,14.59
2023-05-10T03:35:52.035Z,14.54
2023-05-10T03:38:19.535Z,14.42
2023-05-10T03:40:48.593Z,14.24
2023-05-10T03:43:15.931Z,14.18
2023-05-10T03:45:43.503Z,14.23
2023-05-10T03:48:11.093Z,14.26
2023-05-10T03:50:38.443Z,14.20
2023-05-10T03:53:06.051Z,14.17
2023-05-10T03:55:33.771Z,14.20
2023-05-10T03:58:02.574Z,14.22
2023-05-10T04:00:29.983Z,14.20
2023-05-10T04:02:57.417Z,14.13
2023-05-10T04:05:25.049Z,14.07
2023-05-10T04:07:55.142Z,14.00
2023-05-10T04:10:22.440Z,13.99
2023-05-10T04:12:49.731Z,14.06
2023-05-10T04:15:18.658Z,13.93
2023-05-10T04:17:45.954Z,13.83
2023-05-10T04:20:14.173Z,13.91
2023-05-10T04:22:41.648Z,13.89
2023-05-10T04:25:09.785Z,13.79
2023-05-10T04:27:37.030Z,13.73
2023-05-10T04:30:05.463Z,13.66
2023-05-10T04:32:34.071Z,13.58
2023-05-10T04:35:01.542Z,13.63
2023-05-10T04:37:28.775Z,13.60
2023-05-10T04:39:56.067Z,13.55
2023-05-10T04:42:23.318Z,13.32
2023-05-10T04:44:50.709Z,13.29
2023-05-10T04:47:18.027Z,13.20
2023-05-10T04:49:46.707Z,13.17
2023-05-10T04:52:13.912Z,13.27
2023-05-10T04:54:41.220Z,13.20
2023-05-10T04:57:08.447Z,13.01
2023-05-10T04:59:37.201Z,12.73
2023-05-10T05:02:05.657Z,12.86
2023-05-10T05:04:33.172Z,12.67
2023-05-10T05:07:01.968Z,12.35
2023-05-10T05:09:29.501Z,12.24
2023-05-10T05:11:56.672Z,12.24
2023-05-10T05:14:24.319Z,12.29
2023-05-10T05:16:51.531Z,12.13
2023-05-10T05:19:18.932Z,12.17
2023-05-10T05:21:46.430Z,12.06
2023-05-10T05:24:15.076Z,12.18
2023-05-10T05:26:42.345Z,12.20
2023-05-10T05:29:09.766Z,12.16
2023-05-10T05:31:37.166Z,12.09
2023-05-10T05:34:04.911Z,12.10
2023-05-10T05:36:32.190Z,12.27
2023-05-10T05:38:59.488Z,12.05
2023-05-10T05:41:28.105Z,11.90
2023-05-10T05:43:55.429Z,12.13
2023-05-10T05:46:22.828Z,12.24
2023-05-10T05:48:50.249Z,12.13
2023-05-10T05:51:17.538Z,11.98
2023-05-10T05:53:44.864Z,12.11
2023-05-10T05:56:12.143Z,12.13
2023-05-10T05:58:40.931Z,12.20
2023-05-10T06:01:08.142Z,12.15
2023-05-10T06:03:35.670Z,11.97
2023-05-10T06:06:03.010Z,12.14
2023-05-10T06:08:30.327Z,12.06
2023-05-10T06:10:57.669Z,12.08
2023-05-10T06:13:25.267Z,12.17
2023-05-10T06:15:53.820Z,12.38
2023-05-10T06:18:21.047Z,12.31
2023-05-10T06:20:48.339Z,12.47
2023-05-10T06:23:16.336Z,12.34
2023-05-10T06:25:43.602Z,12.39
2023-05-10T06:28:10.935Z,12.32
2023-05-10T06:30:38.143Z,12.20
2023-05-10T06:33:07.003Z,12.39
2023-05-10T06:35:34.375Z,12.39
2023-05-10T06:38:01.600Z,12.38
2023-05-10T06:40:28.880Z,12.35
2023-05-10T06:42:56.242Z,12.30
2023-05-10T06:45:23.518Z,12.23
2023-05-10T06:47:50.828Z,12.34
2023-05-10T06:50:19.961Z,12.39
2023-05-10T06:52:47.358Z,12.46
2023-05-10T06:55:14.692Z,12.46
2023-05-10T06:57:42.214Z,12.52
2023-05-10T07:00:10.104Z,12.72
2023-05-10T07:02:37.676Z,12.78
2023-05-10T07:05:05.710Z,12.85
2023-05-10T07:07:34.375Z,13.00
2023-05-10T07:10:01.642Z,13.07
2023-05-10T07:12:29.097Z,13.12
2023-05-10T07:14:56.392Z,13.17
2023-05-10T07:17:23.808Z,13.22
2023-05-10T07:19:51.135Z,13.38
2023-05-10T07:22:18.941Z,13.35
2023-05-10T07:24:47.782Z,13.37
2023-05-10T07:27:15.118Z,13.60
2023-05-10T07:29:42.341Z,13.64
2023-05-10T07:32:09.686Z,13.79
2023-05-10T07:34:36.983Z,13.69
2023-05-10T07:37:04.187Z,13.73
2023-05-10T07:39:31.352Z,13.82
2023-05-10T07:42:00.035Z,14.02
2023-05-10T07:44:27.186Z,14.18
2023-05-10T07:46:54.474Z,14.08
2023-05-10T07:49:21.664Z,14.11
2023-05-10T07:51:48.951Z,14.11
2023-05-10T07:54:16.428Z,14.21
2023-05-10T07:56:43.675Z,14.31
2023-05-10T07:59:16.576Z,14.39
2023-05-10T08:01:44.411Z,14.48
2023-05-10T08:04:11.699Z,14.40
2023-05-10T08:06:39.201Z,14.30
2023-05-10T08:09:06.467Z,14.49
2023-05-10T08:11:35.006Z,14.46
2023-05-10T08:14:02.510Z,14.50
2023-05-10T08:16:31.254Z,14.50
2023-05-10T08:18:58.652Z,14.54
2023-05-10T08:21:25.962Z,14.63
2023-05-10T08:23:53.276Z,14.70
2023-05-10T08:26:20.489Z,15.07
2023-05-10T08:28:47.728Z,15.18
2023-05-10T08:31:15.078Z,15.30
2023-05-10T08:33:44.546Z,15.35
2023-05-10T08:36:12.327Z,15.18
2023-05-10T08:38:39.600Z,15.02
2023-05-10T08:41:07.356Z,15.25
2023-05-10T08:43:37.120Z,15.03
2023-05-10T08:46:08.214Z,15.01
2023-05-10T08:48:35.990Z,14.89
2023-05-10T08:51:05.219Z,14.85
2023-05-10T08:53:37.223Z,14.74
2023-05-10T08:56:05.363Z,14.90
2023-05-10T08:58:32.810Z,15.20
2023-05-10T09:01:01.883Z,15.67
2023-05-10T09:03:29.282Z,15.51
2023-05-10T09:05:56.891Z,15.86
2023-05-10T09:08:27.628Z,16.21
2023-05-10T09:10:55.691Z,16.35
2023-05-10T09:13:24.459Z,16.26
2023-05-10T09:15:52.797Z,16.15
2023-05-10T09:18:20.156Z,16.23
2023-05-10T09:20:47.493Z,16.08
2023-05-10T09:23:14.760Z,16.46
2023-05-10T09:25:43.747Z,16.66
2023-05-10T09:28:12.186Z,16.58
2023-05-10T09:30:39.606Z,16.29
2023-05-10T09:33:06.932Z,15.83
2023-05-10T09:35:35.666Z,15.99
2023-05-10T09:38:05.049Z,16.16
2023-05-10T09:40:32.745Z,16.54
2023-05-10T09:43:03.091Z,16.65
2023-05-10T09:45:31.859Z,16.51
2023-05-10T09:48:00.325Z,16.22
2023-05-10T09:50:28.198Z,16.08
2023-05-10T09:52:57.941Z,16.07
2023-05-10T09:55:27.389Z,16.44
2023-05-10T09:58:02.361Z,16.95
2023-05-10T10:00:35.414Z,17.36
2023-05-10T10:03:03.388Z,17.04
2023-05-10T10:05:31.624Z,17.50
2023-05-10T10:07:59.622Z,17.58
2023-05-10T10:10:28.173Z,17.36
2023-05-10T10:12:56.374Z,16.79
2023-05-10T10:15:25.260Z,16.57
2023-05-10T10:17:54.035Z,16.35
2023-05-10T10:20:23.613Z,15.56
2023-05-10T10:22:51.090Z,15.28
2023-05-10T10:25:19.982Z,15.10
2023-05-10T10:28:04.694Z,15.53
2023-05-10T10:30:43.926Z,15.86
2023-05-10T10:33:30.820Z,16.06
2023-05-10T10:36:00.974Z,16.66
2023-05-10T10:38:37.372Z,16.73
2023-05-10T10:41:11.383Z,17.62
2023-05-10T10:43:38.636Z,18.39
2023-05-10T10:46:12.889Z,18.33
2023-05-10T10:48:40.659Z,18.06
2023-05-10T10:51:08.738Z,17.88
2023-05-10T10:53:38.981Z,18.08
2023-05-10T10:56:08.004Z,18.14
2023-05-10T10:58:35.916Z,18.11
2023-05-10T11:01:18.209Z,17.56
2023-05-10T11:04:20.076Z,17.99
2023-05-10T11:06:47.414Z,18.33
2023-05-10T11:09:14.692Z,17.79
2023-05-10T11:11:51.570Z,17.21
2023-05-10T11:14:21.724Z,16.98
2023-05-10T11:16:51.040Z,17.03
2023-05-10T11:19:19.233Z,16.81
2023-05-10T11:21:48.071Z,17.09
2023-05-10T11:24:16.535Z,17.40
2023-05-10T11:26:43.989Z,17.56
2023-05-10T11:29:13.249Z,17.83
2023-05-10T11:31:44.200Z,18.21
2023-05-10T11:34:23.470Z,18.80
2023-05-10T11:36:53.072Z,19.22
2023-05-10T11:39:20.716Z,19.02
2023-05-10T11:41:50.449Z,18.62
2023-05-10T11:44:18.028Z,17.92
2023-05-10T11:46:45.634Z,17.36
2023-05-10T11:49:14.437Z,16.82
2023-05-10T11:51:42.000Z,16.17
2023-05-10T11:54:11.734Z,15.89
2023-05-10T11:56:40.469Z,15.47
2023-05-10T11:59:08.327Z,15.12
2023-05-10T12:01:35.971Z,14.87
2023-05-10T12:04:03.747Z,14.82
2023-05-10T12:06:37.385Z,15.02
2023-05-10T12:09:07.617Z,14.97
2023-05-10T12:11:39.666Z,15.30
2023-05-10T12:14:09.717Z,15.52
2023-05-10T12:16:37.133Z,15.70
2023-05-10T12:19:04.644Z,16.71
2023-05-10T12:21:33.997Z,16.34
2023-05-10T12:24:03.854Z,16.02
2023-05-10T12:26:31.240Z,15.59
2023-05-10T12:29:13.419Z,15.43
2023-05-10T12:31:57.479Z,15.63
2023-05-10T12:34:26.293Z,16.17
2023-05-10T12:36:55.542Z,16.89
2023-05-10T12:39:22.904Z,17.18
2023-05-10T12:41:50.379Z,16.91
2023-05-10T12:44:17.766Z,15.92
2023-05-10T12:46:45.021Z,15.68
2023-05-10T12:49:12.722Z,15.60
2023-05-10T12:51:39.941Z,15.93
2023-05-10T12:54:08.655Z,16.41
2023-05-10T12:56:35.918Z,17.29
2023-05-10T12:59:03.242Z,19.28
2023-05-10T13:01:30.486Z,19.11
2023-05-10T13:03:57.901Z,18.11
2023-05-10T13:06:25.205Z,18.05
2023-05-10T13:08:52.586Z,17.41
2023-05-10T13:11:21.395Z,17.18
2023-05-10T13:13:48.653Z,16.57
2023-05-10T13:16:16.080Z,16.29
2023-05-10T13:18:43.429Z,16.53
2023-05-10T13:21:10.631Z,16.90
2023-05-10T13:23:37.896Z,16.73
2023-05-10T13:26:05.315Z,16.82
2023-05-10T13:28:34.186Z,17.01
2023-05-10T13:31:01.416Z,17.29
2023-05-10T13:33:28.826Z,17.65
2023-05-10T13:35:56.124Z,17.65
2023-05-10T13:38:23.457Z,17.18
2023-05-10T13:40:50.932Z,17.30
2023-05-10T13:43:18.211Z,17.09
2023-05-10T13:45:46.767Z,16.85
2023-05-10T13:48:14.115Z,16.95
2023-05-10T13:50:41.334Z,16.77
2023-05-10T13:53:08.629Z,17.03
2023-05-10T13:55:35.835Z,17.05
2023-05-10T13:58:03.195Z,17.13
2023-05-10T14:00:30.559Z,16.87
2023-05-10T14:02:59.258Z,17.23
2023-05-10T14:05:26.882Z,17.59
2023-05-10T14:07:54.572Z,17.44
2023-05-10T14:10:21.794Z,17.38
2023-05-10T14:12:49.094Z,16.74
2023-05-10T14:15:16.609Z,17.11
2023-05-10T14:17:44.217Z,17.18
2023-05-10T14:20:13.153Z,17.70
2023-05-10T14:22:40.428Z,18.37
2023-05-10T14:25:08.733Z,18.77
2023-05-10T14:27:36.067Z,19.04
2023-05-10T14:30:03.579Z,19.40
2023-05-10T14:32:30.890Z,19.94
2023-05-10T14:34:58.132Z,19.81
2023-05-10T14:37:26.779Z,19.43
2023-05-10T14:39:54.189Z,19.61
2023-05-10T14:42:21.540Z,19.61
2023-05-10T14:44:48.889Z,18.88
2023-05-10T14:47:16.339Z,18.70
2023-05-10T14:49:43.862Z,19.64
2023-05-10T14:52:11.360Z,19.09
2023-05-10T14:54:40.040Z,19.09
2023-05-10T14:57:07.520Z,19.22
2023-05-10T14:59:34.800Z,19.05
2023-05-10T15:02:02.725Z,18.80
2023-05-10T15:04:30.377Z,18.69
2023-05-10T15:06:58.069Z,18.54
2023-05-10T15:09:25.651Z,17.81
2023-05-10T15:11:54.382Z,17.18
2023-05-10T15:14:21.869Z,16.96
2023-05-10T15:16:49.285Z,16.86
2023-05-10T15:19:16.463Z,16.69
2023-05-10T15:21:43.799Z,16.61
2023-05-10T15:24:11.053Z,16.71
2023-05-10T15:26:38.471Z,16.67
2023-05-10T15:29:07.069Z,16.76
2023-05-10T15:31:34.491Z,16.81
2023-05-10T15:34:01.733Z,16.91
2023-05-10T15:36:29.026Z,16.74
2023-05-10T15:38:56.318Z,17.10
2023-05-10T15:41:23.660Z,17.36
2023-05-10T15:43:50.865Z,17.91
2023-05-10T15:46:19.554Z,19.94
2023-05-10T15:48:46.867Z,21.77
2023-05-10T15:51:14.210Z,21.07
2023-05-10T15:53:49.713Z,19.41
2023-05-10T15:56:28.119Z,18.60
2023-05-10T15:58:55.394Z,18.36
2023-05-10T16:01:24.258Z,17.70
2023-05-10T16:03:51.538Z,17.47
2023-05-10T16:06:19.093Z,16.96
2023-05-10T16:08:46.306Z,16.86
2023-05-10T16:11:13.660Z,17.09
2023-05-10T16:13:40.994Z,16.59
2023-05-10T16:16:09.175Z,16.87
2023-05-10T16:18:38.182Z,16.97
2023-05-10T16:21:05.695Z,17.21
2023-05-10T16:23:32.995Z,17.31
2023-05-10T16:26:00.366Z,17.66
2023-05-10T16:28:27.647Z,17.65
2023-05-10T16:30:54.953Z,18.09
2023-05-10T16:33:22.259Z,18.39
2023-05-10T16:35:50.903Z,17.78
2023-05-10T16:38:18.146Z,18.25
2023-05-10T16:40:45.408Z,21.16
2023-05-10T16:43:12.708Z,19.68
2023-05-10T16:45:40.044Z,19.46
2023-05-10T16:48:07.345Z,18.71
2023-05-10T16:50:34.708Z,18.38
2023-05-10T16:53:03.340Z,18.17
2023-05-10T16:55:30.779Z,17.44
2023-05-10T16:57:58.058Z,17.64
2023-05-10T17:00:25.435Z,17.38
2023-05-10T17:02:57.239Z,17.14
2023-05-10T17:05:24.844Z,17.08
2023-05-10T17:07:52.209Z,17.14
2023-05-10T17:10:20.957Z,16.76
2023-05-10T17:12:48.286Z,16.38
2023-05-10T17:15:15.805Z,16.29
2023-05-10T17:17:43.209Z,16.40
2023-05-10T17:20:11.270Z,16.47
2023-05-10T17:22:38.653Z,17.02
2023-05-10T17:25:07.150Z,17.57
2023-05-10T17:27:36.064Z,17.41
2023-05-10T17:30:03.903Z,17.48
2023-05-10T17:32:31.221Z,17.18
2023-05-10T17:34:58.558Z,17.35
2023-05-10T17:37:28.566Z,17.20
2023-05-10T17:39:55.952Z,16.86
2023-05-10T17:42:23.520Z,16.85
2023-05-10T17:44:52.487Z,16.80
2023-05-10T17:47:19.817Z,16.89
2023-05-10T17:49:47.251Z,17.32
2023-05-10T17:52:16.946Z,17.26
2023-05-10T17:54:44.352Z,18.29
2023-05-10T17:57:11.628Z,18.58
2023-05-10T17:59:38.932Z,18.30
2023-05-10T18:02:07.527Z,18.98
2023-05-10T18:04:35.064Z,18.87
2023-05-10T18:07:02.387Z,17.59
2023-05-10T18:09:30.070Z,17.48
2023-05-10T18:11:57.451Z,17.08
2023-05-10T18:14:39.123Z,16.51
2023-05-10T18:17:09.529Z,16.24
2023-05-10T18:19:37.025Z,16.10
2023-05-10T18:22:04.333Z,16.01
2023-05-10T18:27:01.930Z,15.71
2023-05-10T18:29:32.584Z,15.78
2023-05-10T18:31:59.900Z,15.82
2023-05-10T18:34:28.489Z,15.82
2023-05-10T18:36:55.855Z,15.58
2023-05-10T18:39:23.614Z,15.67
2023-05-10T18:41:51.071Z,15.58
2023-05-10T18:44:18.387Z,15.55
2023-05-10T18:46:45.823Z,15.33
2023-05-10T18:49:14.211Z,15.27
2023-05-10T18:51:42.916Z,15.18
2023-05-10T18:54:10.151Z,15.17
2023-05-10T18:56:37.469Z,15.16
2023-05-10T18:59:04.752Z,15.22
2023-05-10T19:01:31.988Z,15.08
2023-05-10T19:03:59.350Z,14.91
2023-05-10T19:06:26.886Z,14.87
2023-05-10T19:08:55.648Z,14.96
2023-05-10T19:11:23.015Z,14.93
2023-05-10T19:13:50.287Z,14.97
2023-05-10T19:16:23.061Z,14.89
2023-05-10T19:18:51.476Z,14.87
2023-05-10T19:21:18.831Z,14.87
2023-05-10T19:23:48.159Z,14.91
2023-05-10T19:26:16.924Z,14.88
2023-05-10T19:28:44.276Z,14.76
2023-05-10T19:31:11.817Z,14.72
2023-05-10T19:33:40.574Z,14.69
2023-05-10T19:36:09.151Z,14.66
2023-05-10T19:38:37.128Z,14.51
2023-05-10T19:41:04.450Z,14.46
2023-05-10T19:43:35.126Z,14.42
2023-05-10T19:46:03.437Z,14.32
2023-05-10T19:48:30.961Z,14.21
2023-05-10T19:51:00.152Z,14.27
2023-05-10T19:53:27.732Z,14.23
2023-05-10T19:55:55.751Z,14.25
2023-05-10T19:58:23.157Z,14.21
2023-05-10T20:00:51.846Z,14.20
2023-05-10T20:03:19.121Z,14.11
2023-05-10T20:05:46.778Z,14.11
2023-05-10T20:08:14.503Z,13.94
2023-05-10T20:10:41.792Z,13.89
2023-05-10T20:13:09.435Z,13.83
2023-05-10T20:15:37.951Z,13.79
2023-05-10T20:18:06.778Z,13.77
2023-05-10T20:20:34.337Z,13.91
2023-05-10T20:23:02.024Z,13.82
2023-05-10T20:25:29.486Z,13.79
2023-05-10T20:27:56.761Z,13.79
2023-05-10T20:30:25.111Z,13.82
2023-05-10T20:32:52.568Z,13.88
2023-05-10T20:35:21.256Z,13.93
2023-05-10T20:37:48.561Z,13.83
2023-05-10T20:40:18.650Z,13.82
2023-05-10T20:42:46.039Z,13.76
2023-05-10T20:45:13.639Z,13.59
2023-05-10T20:47:41.178Z,13.57
2023-05-10T20:50:09.860Z,13.52
2023-05-10T20:52:38.524Z,13.55
2023-05-10T20:55:07.997Z,13.60
2023-05-10T20:57:35.407Z,13.62
2023-05-10T21:00:12.842Z,13.73
2023-05-10T21:02:42.264Z,13.69
2023-05-10T21:05:10.131Z,13.57
2023-05-10T21:07:39.179Z,13.55
2023-05-10T21:10:07.829Z,13.66
2023-05-10T21:12:35.247Z,13.62
2023-05-10T21:15:03.772Z,13.56
2023-05-10T21:17:32.642Z,13.46
2023-05-10T21:19:59.997Z,13.45
2023-05-10T21:22:27.864Z,13.46
2023-05-10T21:24:56.800Z,13.39
2023-05-10T21:27:24.820Z,13.30
2023-05-10T21:29:52.243Z,13.33
2023-05-10T21:32:22.416Z,13.42
2023-05-10T21:34:50.110Z,13.33
2023-05-10T21:37:17.887Z,13.30
2023-05-10T21:39:45.579Z,13.31
2023-05-10T21:42:14.425Z,13.37
2023-05-10T21:44:41.711Z,13.27
2023-05-10T21:47:09.257Z,13.19
2023-05-10T21:49:36.952Z,13.22
2023-05-10T21:52:04.637Z,13.15
2023-05-10T21:54:32.049Z,13.21
2023-05-10T21:56:59.423Z,13.22
2023-05-10T21:59:31.106Z,13.22
2023-05-10T22:01:58.571Z,13.25
2023-05-10T22:04:25.915Z,13.24
2023-05-10T22:06:53.307Z,13.19
2023-05-10T22:09:20.608Z,13.23
2023-05-10T22:11:48.186Z,13.28
2023-05-10T22:14:15.513Z,13.22
2023-05-10T22:16:44.300Z,13.17
2023-05-10T22:19:11.695Z,13.16
2023-05-10T22:21:39.213Z,13.19
2023-05-10T22:24:06.711Z,13.26
2023-05-10T22:26:37.799Z,13.15
2023-05-10T22:29:05.130Z,13.22
2023-05-10T22:31:32.571Z,13.20
2023-05-10T22:34:01.289Z,13.19
2023-05-10T22:36:28.546Z,13.22
2023-05-10T22:38:56.377Z,13.11
2023-05-10T22:41:23.640Z,13.03
2023-05-10T22:43:50.975Z,13.10
2023-05-10T22:46:18.281Z,13.09
2023-05-10T22:48:45.698Z,13.05
2023-05-10T22:51:14.408Z,13.14
2023-05-10T22:53:41.747Z,13.16
2023-05-10T22:56:09.371Z,13.17
2023-05-10T22:58:36.829Z,13.10
2023-05-10T23:01:04.518Z,13.08
2023-05-10T23:03:32.112Z,13.07
2023-05-10T23:05:59.744Z,13.11
2023-05-10T23:08:28.750Z,13.07
2023-05-10T23:10:56.164Z,13.05
2023-05-10T23:13:23.600Z,13.00
2023-05-10T23:15:50.984Z,12.95
2023-05-10T23:18:18.408Z,12.98
2023-05-10T23:20:45.739Z,12.91
2023-05-10T23:23:13.281Z,12.94
2023-05-10T23:25:41.911Z,13.02
2023-05-10T23:28:09.329Z,12.99
2023-05-10T23:30:36.703Z,12.97
2023-05-10T23:33:04.050Z,12.92
2023-05-10T23:35:32.072Z,12.86
2023-05-10T23:37:59.450Z,12.87
2023-05-10T23:40:26.726Z,12.85
2023-05-10T23:42:55.444Z,12.82
2023-05-10T23:45:23.029Z,12.72
2023-05-10T23:47:50.451Z,12.71
2023-05-10T23:50:18.196Z,12.62
2023-05-10T23:52:45.866Z,12.61
2023-05-10T23:55:13.227Z,12.67
2023-05-10T23:57:40.594Z,12.55
